Time;durP1;ratioP1;P1;durP2;ratioP2;P2;SDS_P1;SDS_P2;PMS_P1;PMS_P2;Temp;Humidity;BMP_temperature;BMP_pressure;BME280_temperature;BME280_humidity;BME280_pressure;Samples;Min_cycle;Max_cycle;Signal;HPM_P1;HPM_P2
2024/01/12 00:01:19;;;;;;;60.33;32.60;;;;;;;;;;5072828;28;20180;-66
2024/01/12 00:03:45;;;;;;;90.83;44.83;;;;;;;;;;5072779;28;20183;-66
2024/01/12 00:06:11;;;;;;;65.73;34.03;;;;;;;;;;5073361;28;20471;-66
2024/01/12 00:08:37;;;;;;;67.10;34.87;;;;;;;;;;5072751;28;20208;-66
2024/01/12 00:11:03;;;;;;;96.27;46.43;;;;;;;;;;5072754;28;20408;-66
2024/01/12 00:13:29;;;;;;;66.80;36.80;;;;;;;;;;5072710;28;20468;-66
2024/01/12 00:15:55;;;;;;;70.83;36.97;;;;;;;;;;5072581;28;20434;-66
2024/01/12 00:18:21;;;;;;;57.97;31.50;;;;;;;;;;5072614;28;20181;-66
2024/01/12 00:20:47;;;;;;;61.80;31.73;;;;;;;;;;5073146;28;20180;-66
2024/01/12 00:23:13;;;;;;;61.93;33.17;;;;;;;;;;5072721;28;20198;-66
2024/01/12 00:25:39;;;;;;;62.40;31.73;;;;;;;;;;5072496;28;20170;-66
2024/01/12 00:28:05;;;;;;;59.60;32.13;;;;;;;;;;5072447;28;20182;-66
2024/01/12 00:30:31;;;;;;;59.37;31.30;;;;;;;;;;5072516;28;20170;-66
2024/01/12 00:32:57;;;;;;;99.50;47.37;;;;;;;;;;5072282;28;20433;-66
2024/01/12 00:35:23;;;;;;;66.23;34.00;;;;;;;;;;5072775;28;20531;-66
2024/01/12 00:37:49;;;;;;;64.43;35.17;;;;;;;;;;5072339;28;20407;-66
2024/01/12 00:40:15;;;;;;;60.00;32.40;;;;;;;;;;5072277;28;20170;-65
2024/01/12 00:42:41;;;;;;;63.97;35.33;;;;;;;;;;5054133;28;20459;-66
2024/01/12 00:45:08;;;;;;;66.43;30.93;;;;;;;;;;5054215;28;20798;-65
2024/01/12 00:47:34;;;;;;;63.67;32.87;;;;;;;;;;5072183;28;20564;-65
2024/01/12 00:50:00;;;;;;;56.47;30.10;;;;;;;;;;5072957;28;20423;-64
2024/01/12 00:52:26;;;;;;;59.33;30.40;;;;;;;;;;5072269;28;20725;-65
2024/01/12 00:54:52;;;;;;;59.60;31.00;;;;;;;;;;5072216;28;20451;-66
2024/01/12 00:57:18;;;;;;;59.40;30.87;;;;;;;;;;5072884;28;20595;-66
2024/01/12 00:59:44;;;;;;;68.47;34.40;;;;;;;;;;5072369;28;20447;-66
2024/01/12 01:02:10;;;;;;;68.60;35.00;;;;;;;;;;5072263;28;20439;-67
2024/01/12 01:04:36;;;;;;;71.43;34.67;;;;;;;;;;5072079;28;20174;-65
2024/01/12 01:07:02;;;;;;;78.13;34.90;;;;;;;;;;5072300;28;20185;-65
2024/01/12 01:09:28;;;;;;;78.40;36.53;;;;;;;;;;5072560;28;20785;-65
2024/01/12 01:11:54;;;;;;;82.90;39.20;;;;;;;;;;5072442;28;20229;-66
2024/01/12 01:14:24;;;;;;;73.40;33.93;;;;;;;;;;5072040;28;20320;-66
2024/01/12 01:16:50;;;;;;;69.10;32.40;;;;;;;;;;5072128;28;20930;-66
2024/01/12 01:19:17;;;;;;;98.27;39.33;;;;;;;;;;5071891;28;20457;-65
2024/01/12 01:21:43;;;;;;;74.37;34.43;;;;;;;;;;5071748;28;20505;-66
2024/01/12 01:24:09;;;;;;;81.80;32.53;;;;;;;;;;5053914;28;20427;-65
2024/01/12 01:26:35;;;;;;;80.77;36.10;;;;;;;;;;5071881;28;20412;-66
2024/01/12 01:29:01;;;;;;;82.30;35.80;;;;;;;;;;5071758;28;20552;-65
2024/01/12 01:31:26;;;;;;;96.97;42.80;;;;;;;;;;5071844;28;20225;-66
2024/01/12 01:33:52;;;;;;;98.40;40.43;;;;;;;;;;5073984;28;20968;-65
2024/01/12 01:36:18;;;;;;;107.57;43.20;;;;;;;;;;5057015;28;20605;-66
2024/01/12 01:38:44;;;;;;;109.63;47.33;;;;;;;;;;5058825;28;20273;-65
2024/01/12 01:41:10;;;;;;;97.10;38.07;;;;;;;;;;5076200;28;20189;-66
2024/01/12 01:43:36;;;;;;;100.90;41.50;;;;;;;;;;5073126;28;20244;-66
2024/01/12 01:46:03;;;;;;;112.67;43.03;;;;;;;;;;5076120;28;20212;-66
2024/01/12 01:48:30;;;;;;;112.77;44.80;;;;;;;;;;5075455;28;20411;-65
2024/01/12 01:50:56;;;;;;;120.97;45.37;;;;;;;;;;5075391;28;20408;-66
2024/01/12 01:53:22;;;;;;;108.17;43.30;;;;;;;;;;5075436;28;20471;-65
2024/01/12 01:55:48;;;;;;;99.17;38.40;;;;;;;;;;5075311;28;20408;-66
2024/01/12 01:58:14;;;;;;;86.07;37.90;;;;;;;;;;5075133;28;20412;-66
2024/01/12 02:00:41;;;;;;;106.37;39.77;;;;;;;;;;5075217;28;20412;-66
2024/01/12 02:03:07;;;;;;;98.60;37.63;;;;;;;;;;5075381;28;20428;-66
2024/01/12 02:05:35;;;;;;;102.10;38.53;;;;;;;;;;5074996;28;20404;-65
2024/01/12 02:08:01;;;;;;;104.53;39.77;;;;;;;;;;5075088;28;20781;-66
2024/01/12 02:10:28;;;;;;;90.60;36.10;;;;;;;;;;5057017;28;20953;-66
2024/01/12 02:12:54;;;;;;;89.17;36.47;;;;;;;;;;5075162;28;20431;-66
2024/01/12 02:15:21;;;;;;;94.43;35.50;;;;;;;;;;5074728;28;20498;-67
2024/01/12 02:17:47;;;;;;;95.70;35.60;;;;;;;;;;5056907;28;20415;-66
2024/01/12 02:20:13;;;;;;;88.07;36.50;;;;;;;;;;5074990;28;20412;-66
2024/01/12 02:22:39;;;;;;;88.27;33.97;;;;;;;;;;5074635;28;20482;-65
2024/01/12 02:25:05;;;;;;;86.37;34.07;;;;;;;;;;5074762;28;20192;-65
2024/01/12 02:27:35;;;;;;;86.80;32.70;;;;;;;;;;5074517;28;20289;-67
2024/01/12 02:30:01;;;;;;;78.60;33.47;;;;;;;;;;5074626;28;20448;-66
2024/01/12 02:32:27;;;;;;;83.07;33.17;;;;;;;;;;5074581;28;20532;-65
2024/01/12 02:34:53;;;;;;;95.43;34.27;;;;;;;;;;5075656;28;20866;-64
2024/01/12 02:37:19;;;;;;;81.73;33.33;;;;;;;;;;5075101;28;20180;-65
2024/01/12 02:39:46;;;;;;;90.83;33.57;;;;;;;;;;5074702;28;20205;-65
2024/01/12 02:42:12;;;;;;;87.57;32.07;;;;;;;;;;5074357;28;20229;-65
2024/01/12 02:44:38;;;;;;;86.77;33.23;;;;;;;;;;5074815;28;20904;-65
2024/01/12 02:47:06;;;;;;;98.27;35.23;;;;;;;;;;5074760;28;20216;-65
2024/01/12 02:49:32;;;;;;;76.60;31.63;;;;;;;;;;5074997;28;20177;-66
2024/01/12 02:51:58;;;;;;;89.47;33.40;;;;;;;;;;5056156;28;20590;-66
2024/01/12 02:54:24;;;;;;;88.27;33.10;;;;;;;;;;5055954;28;20237;-67
2024/01/12 02:56:50;;;;;;;80.97;33.10;;;;;;;;;;5074198;28;20178;-66
2024/01/12 02:59:16;;;;;;;97.83;32.47;;;;;;;;;;5074027;28;20263;-66
2024/01/12 03:01:42;;;;;;;86.77;34.67;;;;;;;;;;5055862;28;20228;-66
2024/01/12 03:04:08;;;;;;;90.33;33.47;;;;;;;;;;5074296;28;20182;-66
2024/01/12 03:06:34;;;;;;;86.47;32.10;;;;;;;;;;5074127;28;20174;-66
2024/01/12 03:08:59;;;;;;;85.17;33.33;;;;;;;;;;5073764;28;20174;-66
2024/01/12 03:11:25;;;;;;;91.47;33.60;;;;;;;;;;5074625;28;20198;-66
2024/01/12 03:13:51;;;;;;;97.93;33.37;;;;;;;;;;5073828;28;20198;-63
2024/01/12 03:16:19;;;;;;;79.60;33.00;;;;;;;;;;5073993;28;20412;-63
2024/01/12 03:18:45;;;;;;;85.30;34.83;;;;;;;;;;5074012;28;20178;-63
2024/01/12 03:21:11;;;;;;;80.70;31.03;;;;;;;;;;5073609;28;20809;-63
2024/01/12 03:23:37;;;;;;;85.47;32.80;;;;;;;;;;5074127;28;20210;-62
2024/01/12 03:26:03;;;;;;;83.73;33.97;;;;;;;;;;5055496;28;20181;-63
2024/01/12 03:28:29;;;;;;;81.50;33.30;;;;;;;;;;5055647;28;20185;-63
2024/01/12 03:30:55;;;;;;;86.33;33.60;;;;;;;;;;5073600;28;20412;-62
2024/01/12 03:33:21;;;;;;;92.77;34.80;;;;;;;;;;5055330;28;20206;-62
2024/01/12 03:35:48;;;;;;;88.07;34.00;;;;;;;;;;5073400;28;20178;-62
2024/01/12 03:38:14;;;;;;;78.63;33.73;;;;;;;;;;5055458;28;20178;-64
2024/01/12 03:40:40;;;;;;;85.80;34.47;;;;;;;;;;5073426;28;20419;-63
2024/01/12 03:43:05;;;;;;;100.33;35.10;;;;;;;;;;5072928;28;20452;-63
2024/01/12 03:45:31;;;;;;;86.43;34.97;;;;;;;;;;5073105;28;20174;-63
2024/01/12 03:47:57;;;;;;;87.23;33.70;;;;;;;;;;5073043;28;20619;-62
2024/01/12 03:50:23;;;;;;;85.17;33.50;;;;;;;;;;5073472;28;20606;-62
2024/01/12 03:52:49;;;;;;;83.77;32.10;;;;;;;;;;5072917;28;20591;-62
2024/01/12 03:55:15;;;;;;;88.43;35.07;;;;;;;;;;5073315;28;20398;-63
2024/01/12 03:57:42;;;;;;;86.20;34.10;;;;;;;;;;5072863;28;20580;-62
2024/01/12 04:00:08;;;;;;;90.73;35.03;;;;;;;;;;5072791;28;20435;-63
2024/01/12 04:02:34;;;;;;;91.03;34.67;;;;;;;;;;5072811;28;20452;-63
2024/01/12 04:05:00;;;;;;;91.63;34.60;;;;;;;;;;5054825;28;20485;-62
2024/01/12 04:07:26;;;;;;;89.40;35.17;;;;;;;;;;5072234;28;20204;-62
2024/01/12 04:09:52;;;;;;;89.93;35.17;;;;;;;;;;5072909;28;20548;-62
2024/01/12 04:12:18;;;;;;;95.17;34.23;;;;;;;;;;5072754;28;20675;-62
2024/01/12 04:14:45;;;;;;;88.80;34.07;;;;;;;;;;5072535;28;20639;-63
2024/01/12 04:17:11;;;;;;;91.10;35.10;;;;;;;;;;5072987;28;20201;-63
2024/01/12 04:19:37;;;;;;;93.20;35.93;;;;;;;;;;5072734;28;20449;-62
2024/01/12 04:22:03;;;;;;;90.77;33.87;;;;;;;;;;5072300;28;20208;-62
2024/01/12 04:24:29;;;;;;;85.20;33.60;;;;;;;;;;5072454;28;20640;-63
2024/01/12 04:26:55;;;;;;;88.77;32.77;;;;;;;;;;5072406;28;20185;-62
2024/01/12 04:29:21;;;;;;;106.83;36.67;;;;;;;;;;5072362;28;20688;-62
2024/01/12 04:31:47;;;;;;;99.43;36.00;;;;;;;;;;5072255;28;20220;-62
2024/01/12 04:34:13;;;;;;;95.77;35.13;;;;;;;;;;5072447;28;20205;-63
2024/01/12 04:36:38;;;;;;;100.47;35.67;;;;;;;;;;5072303;28;20181;-62
2024/01/12 04:39:04;;;;;;;101.23;35.43;;;;;;;;;;5054344;28;20281;-62
2024/01/12 04:41:30;;;;;;;99.73;36.93;;;;;;;;;;5053959;28;20202;-62
2024/01/12 04:43:56;;;;;;;98.63;36.43;;;;;;;;;;5072296;28;20206;-63
2024/01/12 04:46:23;;;;;;;99.37;37.47;;;;;;;;;;5072194;28;20499;-62
2024/01/12 04:48:49;;;;;;;94.23;35.57;;;;;;;;;;5072208;28;20192;-62
2024/01/12 04:51:15;;;;;;;92.07;36.67;;;;;;;;;;5072027;28;20404;-62
2024/01/12 04:53:41;;;;;;;99.00;36.53;;;;;;;;;;5071998;28;20197;-63
2024/01/12 04:56:06;;;;;;;93.47;36.23;;;;;;;;;;5072355;28;20174;-62
2024/01/12 04:58:32;;;;;;;95.70;35.40;;;;;;;;;;5072086;28;20169;-62
2024/01/12 05:00:58;;;;;;;79.30;33.37;;;;;;;;;;5072290;28;20198;-62
2024/01/12 05:03:24;;;;;;;85.27;34.93;;;;;;;;;;5071863;28;20717;-62
2024/01/12 05:05:50;;;;;;;94.13;35.53;;;;;;;;;;5072117;28;20723;-62
2024/01/12 05:08:16;;;;;;;99.77;35.63;;;;;;;;;;5071996;28;20217;-62
2024/01/12 05:10:42;;;;;;;93.77;36.33;;;;;;;;;;5053870;28;20178;-62
2024/01/12 05:13:08;;;;;;;87.60;34.80;;;;;;;;;;5072029;28;20193;-62
2024/01/12 05:15:34;;;;;;;90.67;33.90;;;;;;;;;;5071876;28;20182;-62
2024/01/12 05:18:00;;;;;;;103.13;36.77;;;;;;;;;;5054001;28;20206;-62
2024/01/12 05:20:27;;;;;;;99.07;35.93;;;;;;;;;;5075613;28;20454;-62
2024/01/12 05:22:53;;;;;;;81.73;32.53;;;;;;;;;;5075797;28;20201;-62
2024/01/12 05:25:19;;;;;;;86.87;34.23;;;;;;;;;;5057756;28;20886;-62
2024/01/12 05:27:45;;;;;;;91.67;35.63;;;;;;;;;;5075701;28;20188;-62
2024/01/12 05:30:11;;;;;;;91.73;34.27;;;;;;;;;;5075624;28;20253;-62
2024/01/12 05:32:37;;;;;;;82.13;32.53;;;;;;;;;;5057644;28;20198;-62
2024/01/12 05:35:03;;;;;;;97.03;35.70;;;;;;;;;;5076001;28;20562;-62
2024/01/12 05:37:29;;;;;;;89.13;34.53;;;;;;;;;;5075639;28;20231;-62
2024/01/12 05:39:55;;;;;;;84.40;33.97;;;;;;;;;;5075529;28;20465;-62
2024/01/12 05:42:21;;;;;;;91.87;34.70;;;;;;;;;;5075193;28;20220;-62
2024/01/12 05:44:47;;;;;;;102.07;36.10;;;;;;;;;;5075362;28;20507;-62
2024/01/12 05:47:13;;;;;;;93.03;35.50;;;;;;;;;;5057370;28;20178;-62
2024/01/12 05:49:39;;;;;;;86.90;34.33;;;;;;;;;;5075524;28;20192;-62
2024/01/12 05:52:05;;;;;;;92.43;34.47;;;;;;;;;;5075298;28;20198;-62
2024/01/12 05:54:31;;;;;;;89.43;34.37;;;;;;;;;;5057137;28;20205;-62
2024/01/12 05:56:57;;;;;;;89.70;34.47;;;;;;;;;;5075096;28;20408;-61
2024/01/12 05:59:23;;;;;;;91.90;34.53;;;;;;;;;;5075231;28;20170;-62
2024/01/12 06:01:49;;;;;;;96.87;36.63;;;;;;;;;;5058002;28;20450;-62
2024/01/12 06:04:15;;;;;;;85.77;32.87;;;;;;;;;;5075853;28;20596;-62
2024/01/12 06:06:41;;;;;;;89.13;36.00;;;;;;;;;;5075236;28;20261;-62
2024/01/12 06:09:08;;;;;;;92.20;35.43;;;;;;;;;;5075350;28;20547;-62
2024/01/12 06:11:34;;;;;;;95.50;35.20;;;;;;;;;;5075292;28;20201;-62
2024/01/12 06:14:00;;;;;;;98.47;35.33;;;;;;;;;;5074797;28;20504;-62
2024/01/12 06:16:26;;;;;;;102.53;35.67;;;;;;;;;;5074910;28;20280;-62
2024/01/12 06:18:52;;;;;;;81.67;32.83;;;;;;;;;;5075083;28;20240;-62
2024/01/12 06:21:18;;;;;;;79.97;34.53;;;;;;;;;;5074770;28;20488;-62
2024/01/12 06:23:44;;;;;;;89.10;36.17;;;;;;;;;;5074853;28;20366;-62
2024/01/12 06:26:10;;;;;;;98.80;38.67;;;;;;;;;;5075034;28;20181;-62
2024/01/12 06:28:36;;;;;;;86.30;36.63;;;;;;;;;;5074838;28;20268;-63
2024/01/12 06:31:02;;;;;;;87.93;35.67;;;;;;;;;;5074559;28;20185;-62
2024/01/12 06:33:31;;;;;;;92.73;35.47;;;;;;;;;;5056556;28;20899;-61
2024/01/12 06:35:57;;;;;;;82.13;33.73;;;;;;;;;;5056347;28;20565;-61
2024/01/12 06:38:23;;;;;;;90.17;33.20;;;;;;;;;;5056324;28;20423;-62
2024/01/12 06:40:49;;;;;;;87.87;34.47;;;;;;;;;;5074390;28;20226;-62
2024/01/12 06:43:15;;;;;;;88.60;34.23;;;;;;;;;;5074106;28;20462;-62
2024/01/12 06:45:41;;;;;;;89.73;33.93;;;;;;;;;;5074354;28;20404;-62
2024/01/12 06:48:07;;;;;;;92.10;35.93;;;;;;;;;;5074186;28;20198;-62
2024/01/12 06:50:33;;;;;;;87.40;34.37;;;;;;;;;;5074227;28;20178;-62
2024/01/12 06:53:01;;;;;;;85.17;34.77;;;;;;;;;;5056037;28;20699;-62
2024/01/12 06:55:27;;;;;;;83.27;36.90;;;;;;;;;;5074304;28;20451;-63
2024/01/12 06:57:53;;;;;;;90.50;35.00;;;;;;;;;;5074034;28;20408;-62
2024/01/12 07:00:19;;;;;;;81.37;34.40;;;;;;;;;;5073903;28;20182;-63
2024/01/12 07:02:46;;;;;;;84.13;34.00;;;;;;;;;;5073928;28;20562;-62
2024/01/12 07:05:13;;;;;;;88.40;34.40;;;;;;;;;;5073998;28;20446;-63
2024/01/12 07:07:41;;;;;;;82.53;33.80;;;;;;;;;;5073962;28;20440;-63
2024/01/12 07:10:08;;;;;;;80.47;34.23;;;;;;;;;;5073822;28;20422;-62
2024/01/12 07:12:34;;;;;;;84.93;33.93;;;;;;;;;;5056232;28;20436;-63
2024/01/12 07:15:00;;;;;;;86.97;35.40;;;;;;;;;;5074189;28;20471;-66
2024/01/12 07:17:26;;;;;;;78.93;31.60;;;;;;;;;;5073654;28;20223;-66
2024/01/12 07:19:52;;;;;;;80.93;33.13;;;;;;;;;;5055811;28;20264;-68
2024/01/12 07:22:17;;;;;;;84.80;34.83;;;;;;;;;;5055594;28;20201;-66
2024/01/12 07:24:44;;;;;;;94.10;34.03;;;;;;;;;;5073568;28;20181;-66
2024/01/12 07:27:10;;;;;;;93.73;35.47;;;;;;;;;;5073365;28;20182;-66
2024/01/12 07:29:36;;;;;;;89.13;34.97;;;;;;;;;;5073416;28;20765;-66
2024/01/12 07:32:02;;;;;;;88.83;35.33;;;;;;;;;;5073470;28;20221;-66
2024/01/12 07:34:28;;;;;;;86.73;32.97;;;;;;;;;;5073346;28;20294;-66
2024/01/12 07:36:53;;;;;;;86.40;34.40;;;;;;;;;;5073404;28;20276;-66
2024/01/12 07:39:19;;;;;;;93.87;36.77;;;;;;;;;;5073386;28;20217;-66
2024/01/12 07:41:46;;;;;;;102.20;38.13;;;;;;;;;;5072380;28;20278;-65
2024/01/12 07:44:13;;;;;;;89.33;34.67;;;;;;;;;;5073405;28;20200;-67
2024/01/12 07:46:39;;;;;;;87.20;34.07;;;;;;;;;;5073372;28;20412;-65
2024/01/12 07:49:05;;;;;;;101.17;35.50;;;;;;;;;;5073193;28;20412;-65
2024/01/12 07:51:31;;;;;;;83.97;34.57;;;;;;;;;;5072923;28;20534;-65
2024/01/12 07:53:57;;;;;;;83.17;34.57;;;;;;;;;;5072998;28;20254;-65
2024/01/12 07:56:23;;;;;;;104.23;37.40;;;;;;;;;;5073064;28;20404;-65
2024/01/12 07:58:49;;;;;;;91.20;36.83;;;;;;;;;;5072808;28;20311;-65
2024/01/12 08:01:16;;;;;;;90.30;37.83;;;;;;;;;;5072980;28;20177;-65
2024/01/12 08:03:43;;;;;;;92.10;36.47;;;;;;;;;;5072884;28;20214;-65
2024/01/12 08:06:09;;;;;;;85.77;37.27;;;;;;;;;;5073017;28;20419;-65
2024/01/12 08:08:35;;;;;;;93.20;37.07;;;;;;;;;;5072811;28;20408;-65
2024/01/12 08:11:01;;;;;;;95.70;37.10;;;;;;;;;;5075364;28;20177;-65
2024/01/12 08:13:27;;;;;;;85.70;34.87;;;;;;;;;;5077116;28;20209;-65
2024/01/12 08:15:53;;;;;;;89.33;35.30;;;;;;;;;;5073321;28;20226;-65
2024/01/12 08:18:19;;;;;;;90.97;36.80;;;;;;;;;;5073313;28;20239;-65
2024/01/12 08:20:45;;;;;;;98.20;37.73;;;;;;;;;;5073009;28;20177;-65
2024/01/12 08:23:12;;;;;;;88.30;35.87;;;;;;;;;;5072820;28;20189;-65
2024/01/12 08:25:38;;;;;;;80.57;35.90;;;;;;;;;;5072883;28;20925;-67
2024/01/12 08:28:04;;;;;;;85.80;34.73;;;;;;;;;;5073193;28;20963;-67
2024/01/12 08:30:30;;;;;;;82.13;35.53;;;;;;;;;;5072697;28;20422;-65
2024/01/12 08:32:56;;;;;;;75.43;33.20;;;;;;;;;;5072312;28;20447;-64
2024/01/12 08:35:22;;;;;;;81.37;34.00;;;;;;;;;;5072343;28;20684;-67
2024/01/12 08:37:48;;;;;;;60.87;30.50;;;;;;;;;;5072224;28;20415;-67
2024/01/12 08:40:14;;;;;;;57.27;26.03;;;;;;;;;;5072246;28;20180;-67
2024/01/12 08:42:40;;;;;;;52.10;24.30;;;;;;;;;;5072116;28;20288;-67
2024/01/12 08:45:06;;;;;;;57.63;25.30;;;;;;;;;;5072249;28;20185;-67
2024/01/12 08:47:32;;;;;;;47.07;23.20;;;;;;;;;;5072816;28;20205;-66
2024/01/12 08:49:58;;;;;;;51.80;25.23;;;;;;;;;;5072632;28;20917;-65
2024/01/12 08:52:24;;;;;;;60.97;27.50;;;;;;;;;;5072371;28;20675;-66
2024/01/12 08:54:50;;;;;;;59.33;25.47;;;;;;;;;;5072297;28;20198;-66
2024/01/12 08:57:16;;;;;;;53.40;23.77;;;;;;;;;;5072252;28;20415;-66
2024/01/12 08:59:42;;;;;;;51.20;25.07;;;;;;;;;;5072346;28;20640;-66
2024/01/12 09:02:08;;;;;;;48.80;24.70;;;;;;;;;;5072507;28;20189;-66
2024/01/12 09:04:37;;;;;;;53.00;23.77;;;;;;;;;;5053952;28;20473;-66
2024/01/12 09:07:03;;;;;;;71.43;33.90;;;;;;;;;;5072067;28;20973;-67
2024/01/12 09:09:29;;;;;;;55.70;24.37;;;;;;;;;;5054342;28;20509;-66
2024/01/12 09:11:55;;;;;;;52.67;23.30;;;;;;;;;;5072350;28;20319;-65
2024/01/12 09:14:21;;;;;;;48.43;22.87;;;;;;;;;;5071897;28;20229;-66
2024/01/12 09:16:47;;;;;;;49.37;21.23;;;;;;;;;;5072732;28;20185;-66
2024/01/12 09:19:13;;;;;;;40.63;19.07;;;;;;;;;;5072445;28;20170;-66
2024/01/12 09:21:39;;;;;;;44.27;20.50;;;;;;;;;;5053881;28;20699;-64
2024/01/12 09:24:05;;;;;;;51.13;21.60;;;;;;;;;;5071959;28;20521;-66
2024/01/12 09:26:31;;;;;;;48.87;21.50;;;;;;;;;;5053792;28;20735;-66
2024/01/12 09:28:57;;;;;;;44.17;21.33;;;;;;;;;;5071778;28;20507;-65
2024/01/12 09:31:23;;;;;;;44.53;20.40;;;;;;;;;;5071944;28;20185;-67
2024/01/12 09:33:51;;;;;;;51.13;21.90;;;;;;;;;;5072551;28;20451;-66
2024/01/12 09:36:17;;;;;;;44.80;22.37;;;;;;;;;;5071700;28;20648;-64
2024/01/12 09:38:43;;;;;;;47.27;21.03;;;;;;;;;;5071668;28;20415;-64
2024/01/12 09:41:10;;;;;;;49.40;20.97;;;;;;;;;;5072092;28;20538;-67
2024/01/12 09:43:37;;;;;;;58.87;23.10;;;;;;;;;;5072410;28;20204;-67
2024/01/12 09:46:05;;;;;;;49.20;22.20;;;;;;;;;;5072075;28;20408;-67
2024/01/12 09:48:31;;;;;;;47.10;21.97;;;;;;;;;;5071620;28;20464;-67
2024/01/12 09:50:57;;;;;;;48.80;21.13;;;;;;;;;;5072024;28;20178;-66
2024/01/12 09:53:23;;;;;;;46.67;21.33;;;;;;;;;;5071430;28;20694;-65
2024/01/12 09:55:49;;;;;;;51.07;21.37;;;;;;;;;;5071751;28;20465;-66
2024/01/12 09:58:17;;;;;;;41.87;22.00;;;;;;;;;;5053519;28;20676;-67
2024/01/12 10:00:45;;;;;;;46.37;21.50;;;;;;;;;;5071568;28;20806;-65
2024/01/12 10:03:11;;;;;;;42.00;21.53;;;;;;;;;;5071493;28;20432;-67
2024/01/12 10:05:37;;;;;;;47.63;20.77;;;;;;;;;;5073715;28;20181;-67
2024/01/12 10:08:04;;;;;;;42.77;20.57;;;;;;;;;;5075137;28;20177;-67
2024/01/12 10:10:30;;;;;;;47.87;20.20;;;;;;;;;;5075279;28;20774;-67
2024/01/12 10:12:56;;;;;;;41.47;20.00;;;;;;;;;;5056841;28;20206;-67
2024/01/12 10:15:23;;;;;;;43.77;21.23;;;;;;;;;;5075247;28;20225;-67
2024/01/12 10:17:51;;;;;;;42.37;20.47;;;;;;;;;;5056932;28;20205;-67
2024/01/12 10:20:17;;;;;;;40.90;20.27;;;;;;;;;;5074952;28;20442;-65
2024/01/12 10:22:43;;;;;;;49.07;19.73;;;;;;;;;;5075068;28;20213;-64
2024/01/12 10:25:09;;;;;;;42.80;20.50;;;;;;;;;;5074998;28;20423;-67
2024/01/12 10:27:35;;;;;;;53.07;22.30;;;;;;;;;;5074672;28;20612;-67
2024/01/12 10:30:01;;;;;;;45.40;20.87;;;;;;;;;;5074865;28;20178;-67
2024/01/12 10:32:27;;;;;;;41.97;21.17;;;;;;;;;;5074466;28;20193;-65
2024/01/12 10:34:54;;;;;;;36.07;18.53;;;;;;;;;;5074498;28;20498;-67
2024/01/12 10:37:20;;;;;;;41.07;20.40;;;;;;;;;;5056387;28;20655;-66
2024/01/12 10:39:48;;;;;;;38.93;20.07;;;;;;;;;;5074729;28;20477;-65
2024/01/12 10:42:14;;;;;;;47.10;21.40;;;;;;;;;;5074232;28;20800;-65
2024/01/12 10:44:41;;;;;;;35.00;17.53;;;;;;;;;;5074401;28;20174;-66
2024/01/12 10:47:11;;;;;;;32.87;18.27;;;;;;;;;;5074246;28;20185;-65
2024/01/12 10:49:49;;;;;;;38.50;18.87;;;;;;;;;;5074366;28;20550;-65
2024/01/12 10:52:26;;;;;;;35.77;17.57;;;;;;;;;;5074625;28;20794;-65
2024/01/12 10:55:05;;;;;;;36.90;18.33;;;;;;;;;;5074777;28;20644;-65
2024/01/12 10:57:32;;;;;;;32.57;17.43;;;;;;;;;;5074106;28;20457;-65
2024/01/12 10:59:59;;;;;;;419.63;188.90;;;;;;;;;;5073989;28;20408;-65
2024/01/12 11:02:25;;;;;;;58.37;28.60;;;;;;;;;;5074017;28;20455;-65
2024/01/12 11:04:51;;;;;;;36.67;18.77;;;;;;;;;;5073947;28;20227;-65
2024/01/12 11:07:17;;;;;;;37.67;18.07;;;;;;;;;;5073839;28;20534;-65
2024/01/12 11:09:43;;;;;;;41.50;20.60;;;;;;;;;;5073961;28;20265;-65
2024/01/12 11:12:10;;;;;;;44.10;19.97;;;;;;;;;;5075161;28;20255;-64
2024/01/12 11:14:37;;;;;;;33.67;16.60;;;;;;;;;;5075711;28;20206;-64
2024/01/12 11:17:07;;;;;;;43.67;19.67;;;;;;;;;;5056444;28;20642;-64
2024/01/12 11:19:34;;;;;;;39.10;17.70;;;;;;;;;;5075088;28;20400;-64
2024/01/12 11:22:03;;;;;;;45.00;21.40;;;;;;;;;;5075046;28;20580;-65
2024/01/12 11:24:30;;;;;;;43.27;21.87;;;;;;;;;;5074767;28;20643;-64
2024/01/12 11:26:56;;;;;;;40.03;18.07;;;;;;;;;;5074265;28;20205;-65
2024/01/12 11:29:28;;;;;;;37.33;18.10;;;;;;;;;;5073642;28;20648;-65
2024/01/12 11:31:54;;;;;;;40.37;17.67;;;;;;;;;;5055968;28;20205;-65
2024/01/12 11:34:20;;;;;;;65.17;32.73;;;;;;;;;;5055502;28;20204;-65
2024/01/12 11:36:58;;;;;;;37.90;19.47;;;;;;;;;;5073398;28;20232;-64
2024/01/12 11:39:24;;;;;;;29.87;18.83;;;;;;;;;;5055634;28;20545;-66
2024/01/12 11:41:51;;;;;;;66.43;32.07;;;;;;;;;;5073246;28;20288;-65
2024/01/12 11:44:17;;;;;;;35.23;18.60;;;;;;;;;;5073313;28;20178;-65
2024/01/12 11:46:44;;;;;;;35.63;17.43;;;;;;;;;;5073140;28;20178;-65
2024/01/12 11:49:10;;;;;;;34.47;17.83;;;;;;;;;;5073070;28;20206;-65
2024/01/12 11:51:36;;;;;;;36.63;17.77;;;;;;;;;;5073246;28;20201;-65
2024/01/12 11:54:02;;;;;;;37.43;17.13;;;;;;;;;;5072900;28;20201;-65
2024/01/12 11:56:27;;;;;;;38.90;17.77;;;;;;;;;;5073607;28;20227;-64
2024/01/12 11:58:54;;;;;;;68.03;32.40;;;;;;;;;;5072978;28;20178;-65
2024/01/12 12:01:20;;;;;;;37.93;18.17;;;;;;;;;;5072843;28;20243;-65
2024/01/12 12:03:48;;;;;;;34.67;17.10;;;;;;;;;;5073020;28;20248;-65
2024/01/12 12:06:14;;;;;;;37.63;18.10;;;;;;;;;;5072751;28;20178;-65
2024/01/12 12:08:40;;;;;;;43.03;19.23;;;;;;;;;;5072830;28;20185;-65
2024/01/12 12:11:06;;;;;;;38.93;21.67;;;;;;;;;;5072729;28;20181;-66
2024/01/12 12:13:37;;;;;;;43.57;19.73;;;;;;;;;;5073050;28;20181;-62
2024/01/12 12:16:03;;;;;;;37.10;19.67;;;;;;;;;;5055116;28;20197;-62
2024/01/12 12:18:32;;;;;;;41.73;19.83;;;;;;;;;;5072712;28;20170;-62
2024/01/12 12:21:00;;;;;;;51.97;21.23;;;;;;;;;;5054609;28;20599;-62
2024/01/12 12:23:26;;;;;;;36.33;19.20;;;;;;;;;;5054522;28;20347;-63
2024/01/12 12:25:53;;;;;;;44.70;19.90;;;;;;;;;;5072931;28;20234;-62
2024/01/12 12:28:19;;;;;;;41.20;19.83;;;;;;;;;;5072328;28;20181;-62
2024/01/12 12:30:45;;;;;;;43.97;21.63;;;;;;;;;;5072461;28;20260;-63
2024/01/12 12:33:11;;;;;;;43.23;21.63;;;;;;;;;;5072267;28;20667;-62
2024/01/12 12:35:37;;;;;;;44.53;20.57;;;;;;;;;;5072315;28;20223;-62
2024/01/12 12:38:04;;;;;;;54.00;23.63;;;;;;;;;;5072645;28;20180;-63
2024/01/12 12:40:31;;;;;;;43.17;20.70;;;;;;;;;;5072480;28;20587;-63
2024/01/12 12:43:00;;;;;;;44.27;22.77;;;;;;;;;;5053979;28;20228;-63
2024/01/12 12:45:27;;;;;;;53.07;22.40;;;;;;;;;;5072372;28;20411;-62
2024/01/12 12:47:53;;;;;;;47.03;23.50;;;;;;;;;;5072676;28;20173;-62
2024/01/12 12:50:23;;;;;;;44.57;22.33;;;;;;;;;;5072095;28;20178;-62
2024/01/12 12:52:49;;;;;;;43.83;22.13;;;;;;;;;;5054962;28;20567;-63
2024/01/12 12:55:15;;;;;;;59.23;24.73;;;;;;;;;;5072053;28;20193;-62
2024/01/12 12:57:41;;;;;;;41.40;21.97;;;;;;;;;;5072035;28;20177;-62
2024/01/12 13:00:11;;;;;;;49.60;21.07;;;;;;;;;;5072502;28;20208;-62
2024/01/12 13:02:37;;;;;;;44.60;22.30;;;;;;;;;;5071975;28;20230;-62
2024/01/12 13:05:03;;;;;;;48.20;22.40;;;;;;;;;;5072345;28;20186;-62
2024/01/12 13:07:29;;;;;;;43.73;21.23;;;;;;;;;;5053990;28;20918;-62
2024/01/12 13:09:55;;;;;;;43.70;21.17;;;;;;;;;;5072780;28;20635;-62
2024/01/12 13:12:21;;;;;;;49.07;22.07;;;;;;;;;;5053850;28;20205;-61
2024/01/12 13:14:48;;;;;;;43.07;23.33;;;;;;;;;;5072588;28;20228;-61
2024/01/12 13:17:14;;;;;;;45.57;20.87;;;;;;;;;;5072287;28;20169;-62
2024/01/12 13:19:40;;;;;;;42.67;20.60;;;;;;;;;;5071938;28;20177;-62
2024/01/12 13:22:06;;;;;;;108.20;49.13;;;;;;;;;;5072000;28;20475;-62
2024/01/12 13:24:32;;;;;;;42.47;22.13;;;;;;;;;;5054097;28;20210;-62
2024/01/12 13:26:58;;;;;;;38.27;22.23;;;;;;;;;;5071788;28;20206;-62
2024/01/12 13:29:25;;;;;;;54.37;23.40;;;;;;;;;;5071671;28;20257;-63
2024/01/12 13:31:51;;;;;;;66.67;33.27;;;;;;;;;;5053814;28;20231;-62
2024/01/12 13:34:17;;;;;;;65.00;37.83;;;;;;;;;;5071756;28;20604;-62
2024/01/12 13:36:44;;;;;;;47.40;25.10;;;;;;;;;;5071567;28;20285;-62
2024/01/12 13:39:10;;;;;;;52.40;25.03;;;;;;;;;;5072109;28;20215;-63
2024/01/12 13:41:38;;;;;;;54.03;24.07;;;;;;;;;;5075342;28;20205;-63
2024/01/12 13:44:04;;;;;;;43.90;23.53;;;;;;;;;;5075622;28;20196;-62
2024/01/12 13:46:30;;;;;;;53.63;24.07;;;;;;;;;;5075612;28;20190;-63
2024/01/12 13:48:56;;;;;;;50.13;24.20;;;;;;;;;;5075420;28;20416;-63
2024/01/12 13:51:23;;;;;;;49.07;24.63;;;;;;;;;;5075109;28;20502;-63
2024/01/12 13:53:49;;;;;;;56.43;26.77;;;;;;;;;;5075045;28;20197;-63
2024/01/12 13:56:15;;;;;;;49.80;26.27;;;;;;;;;;5075143;28;20882;-63
2024/01/12 13:58:41;;;;;;;50.03;25.00;;;;;;;;;;5057212;28;20183;-62
2024/01/12 14:01:09;;;;;;;47.50;23.90;;;;;;;;;;5075369;28;20596;-61
2024/01/12 14:03:35;;;;;;;59.50;26.73;;;;;;;;;;5075507;28;20408;-62
2024/01/12 14:06:02;;;;;;;56.30;26.40;;;;;;;;;;5075010;28;20174;-62
2024/01/12 14:08:28;;;;;;;61.63;29.57;;;;;;;;;;5075202;28;20640;-62
2024/01/12 14:10:55;;;;;;;64.23;27.33;;;;;;;;;;5074891;28;20182;-62